createdAt,value
2023-04-10T00:02:36.875Z,7
2023-04-10T00:06:01.952Z,6.99
2023-04-10T00:09:27.178Z,7
2023-04-10T00:12:52.372Z,7
2023-04-10T00:16:17.615Z,7.02
2023-04-10T00:19:42.839Z,7.04
2023-04-10T00:23:08.030Z,7.07
2023-04-10T00:26:33.294Z,7.11
2023-04-10T00:29:58.499Z,7.12
2023-04-10T00:33:23.718Z,7.11
2023-04-10T00:36:48.935Z,7.09
2023-04-10T00:40:14.119Z,7.07
2023-04-10T00:43:39.323Z,7.05
2023-04-10T00:47:04.542Z,7.04
2023-04-10T00:50:29.724Z,7.04
2023-04-10T00:53:55.221Z,7
2023-04-10T00:57:20.147Z,7.01
2023-04-10T01:00:45.380Z,6.98
2023-04-10T01:04:10.685Z,6.95
2023-04-10T01:07:35.782Z,6.9
2023-04-10T01:11:01.018Z,6.88
2023-04-10T01:14:26.210Z,6.86
2023-04-10T01:17:51.473Z,6.84
2023-04-10T01:21:16.613Z,6.83
2023-04-10T01:24:41.814Z,6.79
2023-04-10T01:28:07.058Z,6.7
2023-04-10T01:31:32.234Z,6.67
2023-04-10T01:34:57.446Z,6.7
2023-04-10T01:38:22.673Z,6.77
2023-04-10T01:41:47.914Z,6.84
2023-04-10T01:45:13.140Z,6.93
2023-04-10T01:48:38.350Z,7.04
2023-04-10T01:52:03.575Z,7.14
2023-04-10T01:55:28.839Z,7.19
2023-04-10T01:58:54.046Z,7.21
2023-04-10T02:02:19.317Z,7.26
2023-04-10T02:05:44.482Z,7.31
2023-04-10T02:09:09.695Z,7.36
2023-04-10T02:12:34.939Z,7.4
2023-04-10T02:16:01.025Z,7.46
2023-04-10T02:19:27.420Z,7.48
2023-04-10T02:22:52.630Z,7.54
2023-04-10T02:26:17.856Z,7.57
2023-04-10T02:29:43.111Z,7.62
2023-04-10T02:33:08.310Z,7.69
2023-04-10T02:36:33.546Z,7.68
2023-04-10T02:39:58.738Z,7.69
2023-04-10T02:43:23.945Z,7.72
2023-04-10T02:46:49.194Z,7.81
2023-04-10T02:50:14.337Z,7.89
2023-04-10T02:53:39.601Z,7.95
2023-04-10T02:57:04.749Z,7.92
2023-04-10T03:00:29.978Z,7.9
2023-04-10T03:03:55.522Z,7.9
2023-04-10T03:07:20.459Z,7.9
2023-04-10T03:10:45.684Z,7.9
2023-04-10T03:14:10.880Z,7.87
2023-04-10T03:17:36.112Z,7.77
2023-04-10T03:21:01.320Z,7.6
2023-04-10T03:24:26.482Z,7.46
2023-04-10T03:27:51.694Z,7.28
2023-04-10T03:31:16.923Z,7.15
2023-04-10T03:34:42.095Z,7.02
2023-04-10T03:38:07.302Z,6.91
2023-04-10T03:41:32.547Z,6.82
2023-04-10T03:44:57.771Z,6.73
2023-04-10T03:48:22.955Z,6.65
2023-04-10T03:51:48.165Z,6.59
2023-04-10T03:55:13.360Z,6.54
2023-04-10T03:58:38.590Z,6.46
2023-04-10T04:02:03.994Z,6.39
2023-04-10T04:05:29.061Z,6.36
2023-04-10T04:08:54.261Z,6.32
2023-04-10T04:12:19.466Z,6.28
2023-04-10T04:15:44.668Z,6.28
2023-04-10T04:19:09.889Z,6.38
2023-04-10T04:22:35.068Z,6.47
2023-04-10T04:26:00.285Z,6.55
2023-04-10T04:29:25.508Z,6.66
2023-04-10T04:32:50.795Z,6.72
2023-04-10T04:36:16.082Z,6.78
2023-04-10T04:39:41.224Z,6.83
2023-04-10T04:43:06.450Z,6.9
2023-04-10T04:46:31.688Z,6.96
2023-04-10T04:49:56.877Z,6.98
2023-04-10T04:53:22.113Z,7
2023-04-10T04:56:47.390Z,6.96
2023-04-10T05:00:12.600Z,6.94
2023-04-10T05:03:37.975Z,6.92
2023-04-10T05:07:03.027Z,6.85
2023-04-10T05:10:28.285Z,6.83
2023-04-10T05:13:53.483Z,6.77
2023-04-10T05:17:18.740Z,6.73
2023-04-10T05:20:43.930Z,6.74
2023-04-10T05:24:09.162Z,6.78
2023-04-10T05:27:34.576Z,6.81
2023-04-10T05:30:59.850Z,6.86
2023-04-10T05:34:25.096Z,6.86
2023-04-10T05:37:50.388Z,6.88
2023-04-10T05:41:16.074Z,6.93
2023-04-10T05:44:41.330Z,7.03
2023-04-10T05:48:06.586Z,7.16
2023-04-10T05:51:31.773Z,7.27
2023-04-10T05:54:57.304Z,7.43
2023-04-10T05:58:22.499Z,7.62
2023-04-10T06:01:47.744Z,7.82
2023-04-10T06:05:13.018Z,8.03
2023-04-10T06:08:38.561Z,8.28
2023-04-10T06:12:03.816Z,8.53
2023-04-10T06:15:29.159Z,8.77
2023-04-10T06:18:54.625Z,9.04
2023-04-10T06:22:20.094Z,9.29
2023-04-10T06:25:45.485Z,9.51
2023-04-10T06:29:10.837Z,9.71
2023-04-10T06:32:36.151Z,9.88
2023-04-10T06:36:01.480Z,10.07
2023-04-10T06:39:26.716Z,10.2
2023-04-10T06:42:51.976Z,10.29
2023-04-10T06:46:17.266Z,10.34
2023-04-10T06:49:42.549Z,10.38
2023-04-10T06:53:07.997Z,10.39
2023-04-10T06:56:33.179Z,10.4
2023-04-10T06:59:58.471Z,10.42
2023-04-10T07:03:23.707Z,10.49
2023-04-10T07:06:50.178Z,10.58
2023-04-10T07:10:15.853Z,10.64
2023-04-10T07:13:41.515Z,10.73
2023-04-10T07:17:06.930Z,10.86
2023-04-10T07:20:32.244Z,11.01
2023-04-10T07:23:57.485Z,11.17
2023-04-10T07:27:22.755Z,11.35
2023-04-10T07:30:48.411Z,11.48
2023-04-10T07:34:14.031Z,11.62
2023-04-10T07:37:39.247Z,11.79
2023-04-10T07:41:04.499Z,11.99
2023-04-10T07:44:29.789Z,12.13
2023-04-10T07:47:55.053Z,12.29
2023-04-10T07:51:20.215Z,12.39
2023-04-10T07:54:45.466Z,12.48
2023-04-10T07:58:10.572Z,12.56
2023-04-10T08:01:35.774Z,12.63
2023-04-10T08:05:00.925Z,12.7
2023-04-10T08:08:25.997Z,12.74
2023-04-10T08:11:51.207Z,12.8
2023-04-10T08:15:16.362Z,12.87
2023-04-10T08:18:41.591Z,12.96
2023-04-10T08:22:06.738Z,12.94
2023-04-10T08:25:31.960Z,12.91
2023-04-10T08:28:57.415Z,12.93
2023-04-10T08:32:22.438Z,12.98
2023-04-10T08:35:47.647Z,13.03
2023-04-10T08:39:12.850Z,13.07
2023-04-10T08:42:38.094Z,13.14
2023-04-10T08:46:03.322Z,13.21
2023-04-10T08:49:28.524Z,13.27
2023-04-10T08:52:53.761Z,13.29
2023-04-10T08:56:18.946Z,13.34
2023-04-10T08:59:44.134Z,13.49
2023-04-10T09:03:09.528Z,13.67
2023-04-10T09:06:34.627Z,13.82
2023-04-10T09:09:59.895Z,13.93
2023-04-10T09:13:25.094Z,14.06
2023-04-10T09:16:50.308Z,14.19
2023-04-10T09:20:15.481Z,14.38
2023-04-10T09:23:40.715Z,14.52
2023-04-10T09:27:05.943Z,14.54
2023-04-10T09:30:31.148Z,14.67
2023-04-10T09:33:56.419Z,14.76
2023-04-10T09:37:21.563Z,14.82
2023-04-10T09:40:46.769Z,14.93
2023-04-10T09:44:12.052Z,15.08
2023-04-10T09:47:37.262Z,15.15
2023-04-10T09:51:02.457Z,15.27
2023-04-10T09:54:27.845Z,15.38
2023-04-10T09:57:53.068Z,15.51
2023-04-10T10:01:18.307Z,15.59
2023-04-10T10:04:43.530Z,15.69
2023-04-10T10:08:08.743Z,15.73
2023-04-10T10:11:34.084Z,15.82
2023-04-10T10:14:59.283Z,15.93
2023-04-10T10:18:24.553Z,15.93
2023-04-10T10:21:49.724Z,15.96
2023-04-10T10:25:14.963Z,15.88
2023-04-10T10:28:40.190Z,15.93
2023-04-10T10:32:05.478Z,16.08
2023-04-10T10:35:30.779Z,16.17
2023-04-10T10:38:56.198Z,16.25
2023-04-10T10:42:21.495Z,16.25
2023-04-10T10:45:48.854Z,16.290001
2023-04-10T10:49:14.246Z,16.34
2023-04-10T10:52:39.608Z,16.370001
2023-04-10T10:56:04.927Z,16.41
2023-04-10T10:59:30.266Z,16.48
2023-04-10T11:02:55.818Z,16.51
2023-04-10T11:06:21.096Z,16.469999
2023-04-10T11:09:46.509Z,16.51
2023-04-10T11:13:11.978Z,16.48
2023-04-10T11:16:37.500Z,16.5
2023-04-10T11:20:02.800Z,16.5
2023-04-10T11:23:28.110Z,16.57
2023-04-10T11:26:54.928Z,16.559999
2023-04-10T11:30:20.329Z,16.57
2023-04-10T11:33:45.554Z,16.469999
2023-04-10T11:37:10.861Z,16.34
2023-04-10T11:40:36.083Z,16.190001
2023-04-10T11:44:01.361Z,16.059999
2023-04-10T11:47:26.552Z,16.1
2023-04-10T11:50:51.791Z,16.09
2023-04-10T11:54:17.022Z,16.02
2023-04-10T11:57:42.277Z,16.1
2023-04-10T12:01:07.526Z,16.139999
2023-04-10T12:04:32.795Z,16.190001
2023-04-10T12:07:57.957Z,16.139999
2023-04-10T12:11:23.192Z,16.08
2023-04-10T12:14:48.464Z,16.02
2023-04-10T12:18:13.743Z,16.17
2023-04-10T12:21:39.011Z,16.389999
2023-04-10T12:25:04.811Z,16.49
2023-04-10T12:28:30.057Z,16.610001
2023-04-10T12:31:55.587Z,16.66
2023-04-10T12:35:20.863Z,16.700001
2023-04-10T12:38:46.744Z,16.73
2023-04-10T12:42:11.968Z,16.719999
2023-04-10T12:45:37.244Z,16.66
2023-04-10T12:49:02.476Z,16.559999
2023-04-10T12:52:30.996Z,16.620001
2023-04-10T12:55:56.217Z,16.74
2023-04-10T12:59:22.958Z,16.879999
2023-04-10T13:02:46.788Z,16.950001
2023-04-10T13:06:11.889Z,16.959999
2023-04-10T13:09:37.205Z,16.969999
2023-04-10T13:13:02.452Z,16.959999
2023-04-10T13:16:27.736Z,16.870001
2023-04-10T13:19:52.921Z,16.91
2023-04-10T13:23:18.217Z,16.940001
2023-04-10T13:26:43.521Z,17.030001
2023-04-10T13:30:08.769Z,17.02
2023-04-10T13:33:33.993Z,16.940001
2023-04-10T13:36:59.223Z,16.879999
2023-04-10T13:40:24.532Z,16.84
2023-04-10T13:43:49.836Z,16.82
2023-04-10T13:47:15.217Z,16.85
2023-04-10T13:50:40.360Z,16.92
2023-04-10T13:54:05.604Z,16.959999
2023-04-10T13:57:30.847Z,16.98
2023-04-10T14:00:56.170Z,16.99
2023-04-10T14:04:21.356Z,16.969999
2023-04-10T14:07:46.629Z,16.870001
2023-04-10T14:11:11.891Z,16.74
2023-04-10T14:14:37.174Z,16.709999
2023-04-10T14:18:02.506Z,16.690001
2023-04-10T14:21:27.682Z,16.700001
2023-04-10T14:24:59.110Z,16.700001
2023-04-10T14:28:19.154Z,16.620001
2023-04-10T14:31:54.800Z,16.620001
2023-04-10T14:35:09.795Z,16.67
2023-04-10T14:38:35.722Z,16.59
2023-04-10T14:42:00.990Z,16.459999
2023-04-10T14:45:26.237Z,16.360001
2023-04-10T14:48:51.531Z,16.25
2023-04-10T14:52:16.844Z,16.23
2023-04-10T14:55:42.032Z,16.24
2023-04-10T14:59:08.021Z,16.190001
2023-04-10T15:02:33.307Z,16.17
2023-04-10T15:38:55.149Z,13.19
2023-04-10T15:42:20.423Z,14.14
2023-04-10T15:45:45.678Z,14.41
2023-04-10T15:49:10.903Z,14.59
2023-04-10T15:52:36.138Z,14.71
2023-04-10T15:56:01.394Z,14.83
2023-04-10T15:59:26.612Z,14.9
2023-04-10T16:02:52.071Z,14.97
2023-04-10T16:06:17.234Z,15.07
2023-04-10T16:09:42.628Z,15.1
2023-04-10T16:13:07.942Z,15.15
2023-04-10T16:16:33.311Z,15.15
2023-04-10T16:19:58.659Z,15.12
2023-04-10T16:23:23.834Z,15.1
2023-04-10T16:26:49.249Z,15.1
2023-04-10T16:30:14.535Z,15.14
2023-04-10T16:33:39.790Z,15.13
2023-04-10T16:37:05.089Z,15.07
2023-04-10T16:40:30.331Z,14.97
2023-04-10T16:43:55.594Z,14.88
2023-04-10T16:47:21.023Z,14.79
2023-04-10T16:50:46.249Z,14.74
2023-04-10T16:54:11.554Z,14.7
2023-04-10T16:57:36.789Z,14.68
2023-04-10T17:01:02.164Z,14.62
2023-04-10T17:04:27.523Z,14.58
2023-04-10T17:07:52.852Z,14.56
2023-04-10T17:11:18.160Z,14.55
2023-04-10T17:14:43.410Z,14.51
2023-04-10T17:18:08.755Z,14.47
2023-04-10T17:21:34.057Z,14.43
2023-04-10T17:24:59.364Z,14.4
2023-04-10T17:28:24.649Z,14.32
2023-04-10T17:31:49.982Z,14.28
2023-04-10T17:35:15.207Z,14.26
2023-04-10T17:38:40.489Z,14.24
2023-04-10T17:42:05.822Z,14.2
2023-04-10T17:45:31.087Z,14.13
2023-04-10T17:48:59.190Z,14.08
2023-04-10T17:52:21.649Z,14.03
2023-04-10T17:55:47.037Z,13.96
2023-04-10T17:59:12.290Z,13.88
2023-04-10T18:02:37.731Z,13.81
2023-04-10T18:06:02.831Z,13.76
2023-04-10T18:09:28.212Z,13.71
2023-04-10T18:12:53.537Z,13.68
2023-04-10T18:16:18.984Z,13.63
2023-04-10T18:19:44.150Z,13.58
2023-04-10T18:23:09.906Z,13.51
2023-04-10T18:26:35.258Z,13.47
2023-04-10T18:30:00.590Z,13.41
2023-04-10T18:33:25.905Z,13.36
2023-04-10T18:36:51.196Z,13.32
2023-04-10T18:40:44.021Z,13.23
2023-04-10T18:44:09.427Z,13.11
2023-04-10T18:47:34.556Z,13.05
2023-04-10T18:50:59.828Z,13.06
2023-04-10T18:54:25.128Z,13.02
2023-04-10T18:57:50.447Z,12.96
2023-04-10T19:01:15.809Z,12.93
2023-04-10T19:04:42.197Z,12.89
2023-04-10T19:08:07.342Z,12.87
2023-04-10T19:11:32.662Z,12.85
2023-04-10T19:14:57.860Z,12.82
2023-04-10T19:18:23.099Z,12.78
2023-04-10T19:21:48.365Z,12.74
2023-04-10T19:25:13.625Z,12.66
2023-04-10T19:28:38.899Z,12.59
2023-04-10T19:32:04.211Z,12.54
2023-04-10T19:35:29.481Z,12.49
2023-04-10T19:38:54.909Z,12.48
2023-04-10T19:42:19.977Z,12.44
2023-04-10T19:45:45.194Z,12.46
2023-04-10T19:49:10.479Z,12.46
2023-04-10T19:52:35.753Z,12.46
2023-04-10T19:56:01.018Z,12.41
2023-04-10T19:59:26.224Z,12.37
2023-04-10T20:02:51.645Z,12.35
2023-04-10T20:06:16.719Z,12.33
2023-04-10T20:09:41.981Z,12.32
2023-04-10T20:13:07.194Z,12.35
2023-04-10T20:16:32.382Z,12.37
2023-04-10T20:19:57.581Z,12.34
2023-04-10T20:23:22.789Z,12.32
2023-04-10T20:26:48.004Z,12.26
2023-04-10T20:30:13.273Z,12.21
2023-04-10T20:33:38.480Z,12.18
2023-04-10T20:37:03.663Z,12.14
2023-04-10T20:40:28.873Z,12.13
2023-04-10T20:43:54.057Z,12.1
2023-04-10T20:47:19.318Z,12.07
2023-04-10T20:50:44.541Z,12.03
2023-04-10T20:54:09.737Z,11.98
2023-04-10T20:57:34.956Z,11.91
2023-04-10T21:01:00.222Z,11.87
2023-04-10T21:04:25.416Z,11.83
2023-04-10T21:07:50.561Z,11.83
2023-04-10T21:11:15.778Z,11.82
2023-04-10T21:14:40.966Z,11.83
2023-04-10T21:18:06.214Z,11.83
2023-04-10T21:21:31.450Z,11.8
2023-04-10T21:24:56.629Z,11.81
2023-04-10T21:28:21.855Z,11.75
2023-04-10T21:31:48.315Z,11.71
2023-04-10T21:35:12.239Z,11.68
2023-04-10T21:38:37.466Z,11.65
2023-04-10T21:42:02.621Z,11.62
2023-04-10T21:45:27.813Z,11.64
2023-04-10T21:48:53.236Z,11.66
2023-04-10T21:52:18.218Z,11.7
2023-04-10T21:55:43.460Z,11.71
2023-04-10T21:59:08.638Z,11.72
2023-04-10T22:02:33.936Z,11.72
2023-04-10T22:05:59.047Z,11.73
2023-04-10T22:09:24.237Z,11.74
2023-04-10T22:12:49.667Z,11.77
2023-04-10T22:16:14.636Z,11.77
2023-04-10T22:19:39.809Z,11.83
2023-04-10T22:23:05.037Z,11.86
2023-04-10T22:26:30.196Z,11.9
2023-04-10T22:30:03.112Z,11.94
2023-04-10T22:33:20.592Z,11.96
2023-04-10T22:36:45.818Z,11.96
2023-04-10T22:40:11.022Z,11.92
2023-04-10T22:43:36.217Z,11.89
2023-04-10T22:47:01.461Z,11.91
2023-04-10T22:50:26.702Z,11.88
2023-04-10T22:53:51.853Z,11.84
2023-04-10T22:57:17.059Z,11.81
2023-04-10T23:00:42.249Z,11.8
2023-04-10T23:04:07.464Z,11.84
2023-04-10T23:07:32.649Z,11.82
2023-04-10T23:10:57.840Z,11.79
2023-04-10T23:14:23.078Z,11.77
2023-04-10T23:17:48.324Z,11.72
2023-04-10T23:21:13.525Z,11.66
2023-04-10T23:24:38.744Z,11.62
2023-04-10T23:28:03.929Z,11.58
2023-04-10T23:31:29.155Z,11.58
2023-04-10T23:34:54.322Z,11.59
2023-04-10T23:38:19.551Z,11.61
2023-04-10T23:41:44.703Z,11.64
2023-04-10T23:45:09.882Z,11.64
2023-04-10T23:48:35.121Z,11.67
2023-04-10T23:52:00.326Z,11.7
2023-04-10T23:55:25.527Z,11.69
2023-04-10T23:58:50.684Z,11.71
